createdAt,value
2018-11-07T00:00:52.974Z,63.83
2018-11-07T00:03:26.974Z,63.20
2018-11-07T00:06:01.031Z,63.85
2018-11-07T00:08:35.259Z,63.58
2018-11-07T00:11:09.265Z,63.91
2018-11-07T00:13:43.275Z,63.91
2018-11-07T00:16:17.533Z,64.06
2018-11-07T00:18:51.499Z,63.96
2018-11-07T00:21:25.656Z,64.12
2018-11-07T00:23:59.634Z,63.93
2018-11-07T00:26:33.816Z,64.20
2018-11-07T00:29:07.853Z,64.24
2018-11-07T00:31:41.897Z,64.19
2018-11-07T00:34:15.943Z,64.09
2018-11-07T00:36:50.082Z,64.08
2018-11-07T00:39:24.113Z,64.20
2018-11-07T00:41:58.229Z,64.09
2018-11-07T00:44:32.301Z,64.23
2018-11-07T00:47:06.456Z,64.05
2018-11-07T00:49:40.444Z,64.02
2018-11-07T00:52:14.554Z,64.09
2018-11-07T00:54:48.563Z,63.82
2018-11-07T00:57:22.686Z,64.23
2018-11-07T00:59:56.659Z,64.05
2018-11-07T01:02:30.769Z,64.12
2018-11-07T01:05:04.826Z,63.99
2018-11-07T01:07:38.831Z,63.64
2018-11-07T01:10:13.069Z,64.10
2018-11-07T01:12:47.123Z,63.90
2018-11-07T01:15:21.164Z,63.79
2018-11-07T01:17:55.167Z,63.93
2018-11-07T01:20:29.135Z,63.62
2018-11-07T01:23:03.208Z,63.82
2018-11-07T01:25:37.193Z,63.93
2018-11-07T01:28:11.415Z,64.14
2018-11-07T01:30:45.451Z,64.60
2018-11-07T01:33:19.632Z,64.71
2018-11-07T01:35:53.681Z,64.61
2018-11-07T01:38:27.786Z,64.50
2018-11-07T01:41:01.847Z,64.46
2018-11-07T01:43:35.855Z,64.43
2018-11-07T01:46:09.878Z,64.48
2018-11-07T01:48:44.026Z,64.46
2018-11-07T01:51:18.106Z,64.49
2018-11-07T01:53:52.399Z,64.69
2018-11-07T01:56:26.404Z,64.97
2018-11-07T01:59:00.513Z,65.01
2018-11-07T02:01:34.498Z,65.10
2018-11-07T02:04:08.632Z,64.95
2018-11-07T02:06:42.660Z,64.77
2018-11-07T02:09:16.722Z,64.76
2018-11-07T02:11:50.741Z,64.64
2018-11-07T02:14:24.752Z,64.82
2018-11-07T02:16:58.728Z,64.69
2018-11-07T02:19:32.740Z,64.70
2018-11-07T02:22:06.775Z,64.80
2018-11-07T02:24:40.756Z,64.66
2018-11-07T02:27:14.807Z,64.53
2018-11-07T02:29:48.865Z,64.44
2018-11-07T02:32:22.845Z,64.44
2018-11-07T02:34:56.993Z,64.43
2018-11-07T02:37:30.956Z,64.31
2018-11-07T02:40:05.267Z,64.49
2018-11-07T02:42:39.477Z,64.42
2018-11-07T02:45:13.747Z,64.45
2018-11-07T02:47:47.713Z,64.29
2018-11-07T02:50:21.914Z,64.75
2018-11-07T02:52:55.880Z,65.09
2018-11-07T02:55:29.938Z,65.02
2018-11-07T02:58:03.931Z,64.96
2018-11-07T03:00:38.047Z,64.96
2018-11-07T03:03:12.017Z,64.69
2018-11-07T03:05:46.022Z,64.40
2018-11-07T03:08:20.023Z,64.24
2018-11-07T03:10:54.008Z,64.23
2018-11-07T03:13:28.056Z,64.10
2018-11-07T03:16:02.151Z,63.85
2018-11-07T03:18:36.103Z,63.86
2018-11-07T03:21:10.379Z,64.12
2018-11-07T03:23:44.330Z,64.14
2018-11-07T03:26:18.571Z,64.04
2018-11-07T03:28:52.552Z,64.02
2018-11-07T03:31:26.643Z,64.17
2018-11-07T03:34:00.688Z,64.16
2018-11-07T03:36:34.873Z,64.20
2018-11-07T03:39:10.780Z,64.28
2018-11-07T03:41:44.960Z,64.36
2018-11-07T03:44:18.915Z,64.66
2018-11-07T03:46:52.920Z,64.62
2018-11-07T03:49:26.845Z,64.49
2018-11-07T03:52:00.835Z,64.37
2018-11-07T03:54:34.915Z,64.12
2018-11-07T03:57:09.012Z,64.16
2018-11-07T03:59:42.969Z,64.19
2018-11-07T04:02:17.034Z,64.16
2018-11-07T04:04:51.080Z,64.22
2018-11-07T04:07:25.145Z,64.41
2018-11-07T04:09:59.126Z,64.87
2018-11-07T04:12:33.108Z,64.73
2018-11-07T04:15:08.047Z,64.72
2018-11-07T04:17:42.147Z,64.71
2018-11-07T04:20:16.302Z,64.59
2018-11-07T04:22:51.312Z,64.35
2018-11-07T04:25:25.395Z,64.66
2018-11-07T04:27:59.482Z,64.88
2018-11-07T04:30:33.532Z,64.88
2018-11-07T04:33:07.694Z,64.75
2018-11-07T04:35:41.660Z,64.70
2018-11-07T04:38:15.712Z,64.94
2018-11-07T04:40:49.770Z,65.08
2018-11-07T04:43:23.819Z,64.77
2018-11-07T04:45:57.778Z,64.89
2018-11-07T04:48:31.790Z,64.76
2018-11-07T04:51:06.318Z,64.56
2018-11-07T04:53:40.441Z,64.65
2018-11-07T04:56:14.406Z,64.31
2018-11-07T04:58:48.412Z,64.11
2018-11-07T05:01:22.393Z,64.09
2018-11-07T05:03:56.662Z,64.08
2018-11-07T05:06:30.657Z,64.15
2018-11-07T05:09:05.183Z,63.83
2018-11-07T05:11:39.134Z,63.73
2018-11-07T05:14:13.223Z,63.92
2018-11-07T05:16:47.247Z,63.92
2018-11-07T05:19:21.229Z,63.84
2018-11-07T05:21:55.296Z,63.65
2018-11-07T05:24:29.389Z,63.74
2018-11-07T05:27:03.400Z,63.82
2018-11-07T05:29:37.392Z,63.49
2018-11-07T05:32:11.374Z,63.38
2018-11-07T05:34:45.390Z,63.53
2018-11-07T05:37:19.388Z,63.33
2018-11-07T05:39:53.388Z,63.43
2018-11-07T05:42:27.347Z,63.55
2018-11-07T05:45:01.335Z,63.58
2018-11-07T05:47:35.305Z,63.60
2018-11-07T05:50:10.249Z,63.43
2018-11-07T05:52:44.173Z,63.16
2018-11-07T05:55:18.325Z,63.04
2018-11-07T05:57:52.235Z,63.12
2018-11-07T06:00:26.258Z,63.17
2018-11-07T06:03:00.210Z,62.98
2018-11-07T06:05:34.205Z,63.03
2018-11-07T06:08:08.150Z,62.98
2018-11-07T06:10:42.261Z,62.93
2018-11-07T06:13:16.201Z,63.05
2018-11-07T06:15:50.279Z,62.97
2018-11-07T06:18:24.216Z,62.98
2018-11-07T06:20:58.394Z,62.97
2018-11-07T06:23:32.434Z,62.86
2018-11-07T06:26:06.548Z,62.75
2018-11-07T06:28:40.497Z,62.89
2018-11-07T06:32:17.771Z,62.58
2018-11-07T06:34:52.105Z,62.47
2018-11-07T06:37:26.114Z,62.46
2018-11-07T06:40:00.088Z,62.62
2018-11-07T06:42:34.080Z,62.63
2018-11-07T06:45:08.631Z,62.55
2018-11-07T06:47:48.830Z,62.65
2018-11-07T06:50:22.834Z,62.76
2018-11-07T06:52:56.886Z,62.68
2018-11-07T06:55:30.849Z,62.60
2018-11-07T06:58:04.945Z,62.62
2018-11-07T07:00:38.927Z,62.74
2018-11-07T07:03:12.922Z,62.42
2018-11-07T07:05:46.889Z,62.45
2018-11-07T07:08:21.860Z,62.43
2018-11-07T07:10:55.892Z,62.46
2018-11-07T07:13:29.987Z,62.38
2018-11-07T07:16:03.949Z,62.55
2018-11-07T07:18:38.007Z,62.68
2018-11-07T07:21:11.968Z,62.50
2018-11-07T07:23:45.945Z,62.52
2018-11-07T07:26:19.906Z,62.53
2018-11-07T07:28:54.014Z,62.48
2018-11-07T07:31:27.965Z,62.59
2018-11-07T07:34:02.038Z,62.57
2018-11-07T07:36:36.082Z,62.60
2018-11-07T07:39:10.618Z,62.77
2018-11-07T07:41:44.589Z,62.87
2018-11-07T07:44:18.574Z,62.80
2018-11-07T07:46:52.526Z,62.72
2018-11-07T07:49:26.657Z,62.51
2018-11-07T07:52:00.586Z,62.48
2018-11-07T07:54:34.686Z,62.60
2018-11-07T07:57:08.712Z,62.97
2018-11-07T07:59:42.684Z,62.96
2018-11-07T08:02:16.658Z,62.80
2018-11-07T08:04:50.667Z,62.92
2018-11-07T08:07:24.633Z,63.02
2018-11-07T08:09:58.958Z,62.86
2018-11-07T08:12:32.922Z,62.81
2018-11-07T08:15:07.564Z,62.93
2018-11-07T08:17:42.596Z,62.85
2018-11-07T08:20:17.644Z,62.95
2018-11-07T08:22:51.601Z,63.02
2018-11-07T08:25:25.608Z,62.97
2018-11-07T08:28:00.481Z,62.94
2018-11-07T08:30:34.483Z,63.07
2018-11-07T08:33:08.637Z,63.39
2018-11-07T08:35:42.699Z,63.66
2018-11-07T08:38:16.634Z,63.81
2018-11-07T08:40:50.683Z,63.92
2018-11-07T08:43:24.622Z,64.28
2018-11-07T08:45:58.624Z,64.17
2018-11-07T08:48:32.582Z,64.43
2018-11-07T08:51:06.676Z,64.11
2018-11-07T08:53:40.648Z,63.74
2018-11-07T08:56:14.647Z,63.91
2018-11-07T08:58:48.631Z,63.96
2018-11-07T09:01:22.642Z,63.70
2018-11-07T09:03:56.697Z,63.88
2018-11-07T09:06:30.688Z,63.53
2018-11-07T09:09:06.568Z,64.39
2018-11-07T09:11:40.648Z,64.43
2018-11-07T09:14:14.618Z,64.50
2018-11-07T09:16:48.648Z,64.45
2018-11-07T09:19:22.606Z,64.89
2018-11-07T09:21:56.613Z,65.03
2018-11-07T09:24:30.646Z,64.96
2018-11-07T09:27:05.129Z,64.72
2018-11-07T09:29:39.126Z,64.57
2018-11-07T09:32:13.169Z,64.59
2018-11-07T09:34:47.474Z,64.72
2018-11-07T09:37:21.501Z,65.02
2018-11-07T09:39:55.469Z,64.85
2018-11-07T09:42:29.465Z,65.09
2018-11-07T09:45:03.469Z,65.24
2018-11-07T09:47:37.780Z,65.36
2018-11-07T09:50:12.482Z,65.07
2018-11-07T09:52:46.579Z,64.68
2018-11-07T09:55:21.433Z,64.23
2018-11-07T09:57:55.477Z,64.40
2018-11-07T10:00:29.438Z,64.83
2018-11-07T10:03:03.540Z,65.08
2018-11-07T10:05:37.592Z,65.66
2018-11-07T10:08:11.541Z,66.11
2018-11-07T10:10:45.564Z,65.75
2018-11-07T10:13:19.657Z,65.67
2018-11-07T10:15:53.606Z,65.43
2018-11-07T10:18:27.706Z,65.46
2018-11-07T10:21:01.680Z,65.78
2018-11-07T10:23:35.810Z,65.53
2018-11-07T10:26:09.775Z,65.23
2018-11-07T10:28:44.088Z,65.15
2018-11-07T10:31:17.847Z,65.18
2018-11-07T10:33:51.972Z,65.13
2018-11-07T10:36:25.961Z,65.50
2018-11-07T10:39:00.115Z,65.55
2018-11-07T10:41:33.986Z,65.47
2018-11-07T10:44:08.320Z,65.12
2018-11-07T10:46:42.306Z,65.42
2018-11-07T10:49:16.315Z,65.24
2018-11-07T10:51:50.286Z,64.74
2018-11-07T10:54:24.377Z,64.50
2018-11-07T10:56:58.379Z,64.61
2018-11-07T10:59:32.504Z,64.75
2018-11-07T11:02:11.605Z,64.70
2018-11-07T11:04:45.617Z,64.10
2018-11-07T11:07:19.644Z,63.89
2018-11-07T11:09:53.658Z,63.65
2018-11-07T11:12:27.732Z,62.75
2018-11-07T11:15:01.911Z,62.72
2018-11-07T11:17:36.123Z,62.54
2018-11-07T11:20:12.429Z,62.63
2018-11-07T11:22:46.401Z,62.27
2018-11-07T11:25:20.402Z,62.09
2018-11-07T11:27:54.348Z,61.92
2018-11-07T11:30:28.343Z,61.10
2018-11-07T11:33:02.290Z,61.23
2018-11-07T11:35:36.378Z,60.33
2018-11-07T11:38:10.326Z,59.75
2018-11-07T11:40:44.297Z,59.49
2018-11-07T11:43:18.268Z,59.81
2018-11-07T11:45:52.437Z,59.54
2018-11-07T11:48:26.386Z,59.36
2018-11-07T11:51:00.491Z,58.84
2018-11-07T11:53:34.454Z,59.10
2018-11-07T11:56:08.459Z,56.92
2018-11-07T11:58:42.477Z,57.81
2018-11-07T12:01:16.542Z,57.81
2018-11-07T12:03:50.476Z,57.82
2018-11-07T12:06:24.586Z,56.81
2018-11-07T12:08:58.648Z,56.17
2018-11-07T12:11:32.711Z,55.92
2018-11-07T12:14:06.657Z,56.02
2018-11-07T12:16:40.758Z,56.53
2018-11-07T12:19:15.324Z,56.76
2018-11-07T12:21:49.706Z,56.57
2018-11-07T12:24:23.649Z,55.72
2018-11-07T12:26:57.758Z,56.19
2018-11-07T12:29:31.613Z,56.74
2018-11-07T12:32:05.698Z,55.70
2018-11-07T12:34:39.648Z,54.99
2018-11-07T12:37:13.637Z,55.57
2018-11-07T12:39:47.627Z,56.44
2018-11-07T12:42:21.709Z,55.62
2018-11-07T12:44:55.749Z,54.92
2018-11-07T12:47:29.792Z,54.93
2018-11-07T12:50:03.920Z,54.84
2018-11-07T12:52:37.925Z,54.63
2018-11-07T12:55:12.749Z,55.14
2018-11-07T12:57:47.116Z,54.35
2018-11-07T13:00:23.522Z,54.84
2018-11-07T13:02:57.675Z,52.52
2018-11-07T13:05:31.747Z,53.23
2018-11-07T13:08:06.154Z,52.10
2018-11-07T13:10:40.143Z,52.67
2018-11-07T13:13:14.185Z,52.84
2018-11-07T13:15:48.171Z,53.42
2018-11-07T13:18:22.192Z,53.42
2018-11-07T13:20:56.181Z,53.58
2018-11-07T13:23:30.170Z,52.37
2018-11-07T13:26:04.203Z,52.83
2018-11-07T13:28:38.221Z,51.42
2018-11-07T13:31:12.193Z,52.62
2018-11-07T13:33:46.188Z,52.15
2018-11-07T13:36:20.130Z,52.58
2018-11-07T13:38:54.631Z,51.29
2018-11-07T13:41:28.283Z,52.16
2018-11-07T13:44:02.251Z,52.45
2018-11-07T13:46:36.206Z,52.39
2018-11-07T13:49:10.360Z,52.13
2018-11-07T13:51:44.301Z,52.67
2018-11-07T13:54:18.435Z,52.44
2018-11-07T13:56:52.373Z,52.14
2018-11-07T13:59:26.431Z,52.78
2018-11-07T14:02:00.370Z,52.30
2018-11-07T14:04:34.372Z,52.65
2018-11-07T14:07:08.334Z,52.93
2018-11-07T14:09:42.324Z,52.83
2018-11-07T14:12:16.290Z,52.60
2018-11-07T14:14:50.371Z,52.77
2018-11-07T14:17:24.344Z,52.16
2018-11-07T14:19:58.405Z,52.54
2018-11-07T14:22:32.464Z,52.58
2018-11-07T14:25:07.797Z,52.72
2018-11-07T14:27:41.935Z,53.39
2018-11-07T14:30:18.118Z,53.37
2018-11-07T14:32:55.264Z,53.96
2018-11-07T14:35:29.270Z,54.35
2018-11-07T14:38:03.222Z,54.20
2018-11-07T14:40:37.177Z,54.99
2018-11-07T14:43:11.122Z,54.86
2018-11-07T14:45:45.122Z,55.14
2018-11-07T14:48:19.081Z,55.26
2018-11-07T14:50:53.050Z,55.15
2018-11-07T14:53:27.048Z,55.68
2018-11-07T14:56:01.146Z,55.61
2018-11-07T14:58:35.114Z,55.79
2018-11-07T15:01:09.108Z,55.89
2018-11-07T15:03:43.304Z,56.54
2018-11-07T15:06:17.395Z,57.04
2018-11-07T15:08:54.115Z,56.94
2018-11-07T15:11:28.260Z,57.43
2018-11-07T15:14:02.174Z,57.38
2018-11-07T15:16:36.402Z,57.65
2018-11-07T15:19:10.404Z,57.43
2018-11-07T15:21:44.351Z,57.45
2018-11-07T15:24:18.303Z,57.44
2018-11-07T15:26:52.517Z,57.83
2018-11-07T15:29:26.466Z,57.82
2018-11-07T15:32:00.524Z,57.99
2018-11-07T15:34:34.464Z,58.20
2018-11-07T15:37:09.225Z,58.12
2018-11-07T15:39:43.184Z,57.84
2018-11-07T15:42:17.173Z,58.53
2018-11-07T15:44:51.162Z,58.44
2018-11-07T15:47:25.230Z,58.51
2018-11-07T15:50:04.285Z,58.88
2018-11-07T15:52:38.248Z,58.68
2018-11-07T15:55:12.204Z,58.80
2018-11-07T15:57:46.329Z,58.68
2018-11-07T16:00:20.347Z,58.62
2018-11-07T16:02:54.321Z,58.82
2018-11-07T16:05:28.281Z,58.85
2018-11-07T16:08:02.328Z,59.18
2018-11-07T16:10:36.310Z,59.79
2018-11-07T16:13:10.299Z,59.79
2018-11-07T16:15:44.295Z,59.22
2018-11-07T16:18:18.323Z,58.99
2018-11-07T16:20:52.345Z,59.13
2018-11-07T16:23:26.415Z,59.38
2018-11-07T16:26:00.630Z,59.84
2018-11-07T16:28:34.607Z,60.18
2018-11-07T16:31:08.627Z,60.47
2018-11-07T16:33:42.996Z,60.31
2018-11-07T16:36:16.946Z,59.92
2018-11-07T16:38:50.920Z,60.45
2018-11-07T16:41:25.013Z,60.21
2018-11-07T16:43:58.962Z,60.00
2018-11-07T16:46:32.891Z,59.90
2018-11-07T16:49:07.048Z,59.81
2018-11-07T16:51:40.983Z,60.46
2018-11-07T16:54:19.214Z,60.59
2018-11-07T16:56:53.235Z,60.33
2018-11-07T16:59:27.234Z,60.51
2018-11-07T17:02:01.353Z,60.86
2018-11-07T17:04:35.406Z,61.25
2018-11-07T17:07:09.647Z,60.92
2018-11-07T17:09:43.787Z,60.69
2018-11-07T17:12:17.804Z,60.71
2018-11-07T17:14:51.914Z,60.66
2018-11-07T17:17:25.927Z,60.62
2018-11-07T17:19:59.977Z,60.74
2018-11-07T17:22:37.339Z,61.37
2018-11-07T17:25:14.687Z,61.64
2018-11-07T17:27:50.082Z,61.65
2018-11-07T17:30:25.314Z,61.47
2018-11-07T17:33:00.019Z,61.98
2018-11-07T17:35:34.649Z,61.91
2018-11-07T17:38:09.574Z,61.60
2018-11-07T17:40:44.151Z,61.00
2018-11-07T17:43:18.124Z,60.99
2018-11-07T17:45:52.174Z,61.16
2018-11-07T17:48:26.230Z,60.98
2018-11-07T17:51:00.208Z,61.22
2018-11-07T17:53:34.481Z,61.25
2018-11-07T17:56:08.560Z,61.49
2018-11-07T17:58:42.549Z,61.66
2018-11-07T18:01:16.586Z,61.77
2018-11-07T18:03:50.673Z,61.94
2018-11-07T18:06:24.816Z,62.10
2018-11-07T18:08:58.754Z,62.10
2018-11-07T18:11:32.833Z,61.68
2018-11-07T18:21:11.802Z,61.01
2018-11-07T18:23:45.798Z,61.14
2018-11-07T18:26:19.988Z,61.27
2018-11-07T18:28:54.105Z,61.49
2018-11-07T18:31:28.171Z,61.57
2018-11-07T18:34:02.261Z,62.09
2018-11-07T18:36:36.392Z,62.20
2018-11-07T18:39:11.586Z,62.00
2018-11-07T18:41:45.661Z,61.97
2018-11-07T18:44:20.819Z,61.98
2018-11-07T18:46:54.908Z,62.34
2018-11-07T18:49:29.045Z,62.19
2018-11-07T18:52:03.118Z,62.23
2018-11-07T18:54:37.215Z,62.04
2018-11-07T18:57:11.348Z,62.05
2018-11-07T18:59:47.277Z,62.08
2018-11-07T19:02:21.626Z,62.46
2018-11-07T19:04:55.672Z,62.00
2018-11-07T19:07:29.733Z,62.23
2018-11-07T19:10:03.931Z,62.24
2018-11-07T19:12:38.006Z,62.31
2018-11-07T19:15:13.339Z,62.43
2018-11-07T19:17:48.505Z,62.40
2018-11-07T19:20:22.467Z,62.48
2018-11-07T19:22:56.680Z,62.42
2018-11-07T19:25:30.659Z,62.86
2018-11-07T19:28:04.816Z,62.97
2018-11-07T19:30:39.654Z,63.02
2018-11-07T19:33:13.783Z,63.12
2018-11-07T19:35:48.932Z,63.11
2018-11-07T19:38:23.108Z,63.01
2018-11-07T19:40:57.083Z,63.36
2018-11-07T19:43:31.083Z,63.33
2018-11-07T19:46:05.062Z,63.05
2018-11-07T19:48:39.084Z,62.84
2018-11-07T19:51:13.024Z,62.70
2018-11-07T19:53:47.095Z,62.87
2018-11-07T19:56:21.103Z,62.91
2018-11-07T19:58:55.385Z,62.79
2018-11-07T20:01:29.414Z,62.94
2018-11-07T20:04:03.391Z,63.02
2018-11-07T20:06:37.373Z,62.93
2018-11-07T20:09:11.653Z,63.29
2018-11-07T20:11:45.620Z,63.28
2018-11-07T20:14:19.636Z,63.07
2018-11-07T20:16:53.605Z,63.54
2018-11-07T20:19:27.635Z,62.83
2018-11-07T20:22:01.649Z,63.09
2018-11-07T20:24:35.674Z,62.80
2018-11-07T20:27:09.619Z,62.64
2018-11-07T20:29:43.757Z,62.38
2018-11-07T20:32:17.739Z,62.82
2018-11-07T20:34:52.132Z,62.59
2018-11-07T20:37:26.529Z,62.34
2018-11-07T20:40:00.639Z,62.94
2018-11-07T20:42:34.695Z,63.25
2018-11-07T20:45:11.189Z,62.90
2018-11-07T20:47:46.243Z,62.70
2018-11-07T20:50:21.444Z,62.56
2018-11-07T20:52:57.309Z,62.21
2018-11-07T20:55:31.481Z,62.22
2018-11-07T20:58:05.723Z,62.22
2018-11-07T21:00:42.462Z,62.27
2018-11-07T21:03:16.566Z,62.17
2018-11-07T21:05:50.696Z,62.25
2018-11-07T21:08:26.052Z,62.28
2018-11-07T21:11:01.974Z,62.18
2018-11-07T21:13:37.864Z,62.20
2018-11-07T21:16:12.037Z,61.89
2018-11-07T21:18:46.911Z,62.06
2018-11-07T21:21:21.263Z,62.01
2018-11-07T21:23:55.384Z,62.13
2018-11-07T21:26:29.700Z,62.49
2018-11-07T21:29:04.248Z,62.62
2018-11-07T21:31:38.482Z,62.82
2018-11-07T21:34:12.555Z,63.00
2018-11-07T21:36:46.855Z,63.39
2018-11-07T21:39:21.443Z,63.14
2018-11-07T21:41:55.747Z,63.20
2018-11-07T21:44:29.720Z,63.02
2018-11-07T21:47:03.872Z,62.81
2018-11-07T21:49:38.701Z,62.50
2018-11-07T21:52:12.970Z,62.30
2018-11-07T21:54:47.186Z,62.59
2018-11-07T21:57:21.527Z,62.44
2018-11-07T21:59:55.517Z,62.51
2018-11-07T22:02:29.583Z,62.65
2018-11-07T22:05:03.642Z,62.64
2018-11-07T22:07:37.868Z,62.36
2018-11-07T22:10:12.978Z,62.61
2018-11-07T22:12:47.057Z,62.97
2018-11-07T22:15:21.106Z,62.81
2018-11-07T22:17:55.279Z,62.74
2018-11-07T22:20:29.240Z,62.80
2018-11-07T22:23:03.250Z,62.55
2018-11-07T22:25:37.195Z,62.59
2018-11-07T22:28:11.343Z,62.20
2018-11-07T22:30:46.137Z,62.54
2018-11-07T22:33:20.262Z,62.31
2018-11-07T22:35:54.331Z,62.39
2018-11-07T22:38:28.404Z,62.24
2018-11-07T22:41:02.358Z,62.49
2018-11-07T22:44:39.633Z,62.61
2018-11-07T22:47:13.631Z,61.97
2018-11-07T22:49:47.647Z,62.25
2018-11-07T22:52:21.666Z,62.12
2018-11-07T22:54:55.760Z,62.24
2018-11-07T22:57:29.778Z,62.38
2018-11-07T23:00:03.961Z,62.49
2018-11-07T23:02:38.003Z,62.25
2018-11-07T23:05:12.108Z,62.02
2018-11-07T23:07:46.124Z,62.16
2018-11-07T23:10:20.250Z,62.33
2018-11-07T23:12:54.256Z,62.26
2018-11-07T23:15:33.271Z,62.48
2018-11-07T23:18:07.306Z,62.48
2018-11-07T23:20:41.345Z,62.56
2018-11-07T23:23:15.657Z,62.52
2018-11-07T23:25:49.737Z,62.83
2018-11-07T23:28:23.750Z,62.70
2018-11-07T23:30:57.864Z,62.95
2018-11-07T23:33:31.998Z,63.00
2018-11-07T23:36:06.243Z,62.87
2018-11-07T23:38:40.322Z,62.81
2018-11-07T23:41:14.469Z,63.12
2018-11-07T23:43:48.504Z,62.96
2018-11-07T23:46:22.734Z,63.03
2018-11-07T23:48:56.755Z,62.77
2018-11-07T23:51:31.025Z,62.96
2018-11-07T23:54:05.218Z,62.80
2018-11-07T23:56:39.243Z,62.85
2018-11-07T23:59:13.305Z,62.81
